Pagrindinis puslapis
METAR-TAF:

METAR-TAF

Oro uostai :

Jasai, Rumunija

platuma: 47-10N, ilguma: 027-38E, Aukštis: 102 m

Dabartinis oras

Ataskaita buvo paskelbta 31 minutes, ne 18:00 UTC
Vėjas 4 kt iš Rytų/Šiaurės Rytų
Temperatūra 17°C
Drėgmė 20%
Slėgis 1018 hPa
Matomumas 10 km arba daugiau
nėra debesų žemiau 1500 m ir nėra kamuolinių lietaus debesų

METAR: LRIA 121800Z 07004KT CAVOK 17/M06 Q1018

Laikas: 21:31 (18:31 UTC)

Prognozė

Ataskaita buvo paskelbta 1 valandą ir 31 minutes, ne 17:00 UTC
Prognozė galioja nuo 12 metu 18 UTC su 13 metu 03 UTC
Vėjas 4 kt nuo kintamojo kryptimis
Matomumas 10 km arba daugiau
nėra debesų žemiau 1500 m ir nėra kamuolinių lietaus debesų

TAF: LRIA 121700Z 1218/1303 VRB04KT CAVOK

Orai ataskaitas ir orų prognozės (METAR, TAF).

turimą stotys yra geltonos ir raudonos taškus žemėlapyje.

Perkelti pele per norėdami pamatyti stoties vardą.

Tada spustelėkite, norėdami matyti oro stebėjimo ir prognozės.

Norėdami pakeisti žemėlapį: spustelėkite ant žalios mygtukų su juodo kryžiaus žemyn,; žalią mygtuką su brūkšneliu, jei norite nutolinti; arba žalių rodyklių gretimoms žemėlapius.


METAR-TAF: